createdAt,value
2022-08-30T00:01:36.661Z,54.49
2022-08-30T00:07:53.824Z,54.69
2022-08-30T00:10:58.359Z,54.65
2022-08-30T00:13:54.910Z,54.99
2022-08-30T00:17:07.690Z,54.74
2022-08-30T00:19:59.063Z,54.85
2022-08-30T00:23:07.574Z,54.88
2022-08-30T00:26:15.582Z,54.75
2022-08-30T00:29:20.427Z,54.66
2022-08-30T00:35:28.464Z,55.18
2022-08-30T00:38:20.715Z,54.98
2022-08-30T00:41:24.231Z,54.91
2022-08-30T00:44:21.352Z,54.93
2022-08-30T00:47:19.890Z,55.22
2022-08-30T00:50:43.503Z,55.09
2022-08-30T00:53:49.169Z,55.14
2022-08-30T00:56:50.935Z,55.28
2022-08-30T00:59:47.033Z,55.31
2022-08-30T01:02:45.421Z,55.35
2022-08-30T01:05:40.096Z,55.68
2022-08-30T01:14:33.011Z,55.82
2022-08-30T01:20:55.093Z,55.91
2022-08-30T01:23:56.178Z,56.04
2022-08-30T01:26:46.473Z,56.02
2022-08-30T01:32:54.276Z,56.03
2022-08-30T01:35:56.031Z,56.11
2022-08-30T01:38:59.458Z,56.20
2022-08-30T01:41:58.521Z,56.17
2022-08-30T01:44:51.902Z,56.40
2022-08-30T01:47:47.973Z,56.33
2022-08-30T01:50:40.883Z,56.20
2022-08-30T01:53:39.502Z,56.15
2022-08-30T01:56:34.042Z,55.94
2022-08-30T01:59:29.755Z,56.13
2022-08-30T02:02:21.370Z,56.48
2022-08-30T02:05:13.005Z,56.64
2022-08-30T02:08:03.075Z,56.47
2022-08-30T02:10:57.470Z,56.54
2022-08-30T02:13:49.874Z,56.46
2022-08-30T02:16:46.283Z,56.44
2022-08-30T02:19:40.390Z,56.45
2022-08-30T02:22:30.311Z,56.19
2022-08-30T02:25:21.501Z,56.54
2022-08-30T02:28:12.561Z,56.34
2022-08-30T02:31:25.180Z,56.45
2022-08-30T02:34:14.116Z,56.89
2022-08-30T02:37:04.150Z,57.00
2022-08-30T02:40:02.234Z,57.05
2022-08-30T02:42:56.970Z,57.20
2022-08-30T02:45:50.347Z,57.18
2022-08-30T02:48:45.253Z,57.42
2022-08-30T02:51:42.899Z,57.27
2022-08-30T02:56:21.433Z,57.26
2022-08-30T02:58:12.845Z,56.99
2022-08-30T03:01:07.068Z,57.37
2022-08-30T03:04:04.422Z,57.50
2022-08-30T03:07:09.198Z,57.87
2022-08-30T03:10:02.698Z,57.45
2022-08-30T03:16:04.968Z,58.07
2022-08-30T03:19:13.386Z,58.19
2022-08-30T03:22:09.067Z,57.75
2022-08-30T03:25:01.699Z,58.00
2022-08-30T03:27:59.500Z,57.89
2022-08-30T03:30:59.392Z,57.83
2022-08-30T03:34:00.101Z,58.11
2022-08-30T03:36:54.002Z,57.80
2022-08-30T03:39:48.597Z,57.69
2022-08-30T03:42:43.969Z,57.86
2022-08-30T03:45:39.543Z,58.24
2022-08-30T03:48:29.943Z,58.36
2022-08-30T03:51:17.181Z,58.35
2022-08-30T03:54:10.263Z,58.09
2022-08-30T03:56:57.249Z,58.07
2022-08-30T03:59:44.085Z,58.25
2022-08-30T04:02:31.104Z,58.12
2022-08-30T04:05:21.316Z,58.37
2022-08-30T04:08:11.230Z,58.11
2022-08-30T04:10:58.108Z,58.49
2022-08-30T04:13:52.019Z,58.06
2022-08-30T04:16:42.948Z,58.19
2022-08-30T04:19:29.998Z,58.40
2022-08-30T04:22:17.593Z,58.37
2022-08-30T04:25:05.211Z,58.36
2022-08-30T04:27:58.389Z,58.83
2022-08-30T04:30:50.088Z,58.79
2022-08-30T04:33:37.261Z,58.60
2022-08-30T04:36:25.270Z,58.56
2022-08-30T04:39:14.499Z,58.90
2022-08-30T04:42:03.305Z,58.63
2022-08-30T04:44:51.011Z,58.95
2022-08-30T04:47:42.216Z,58.87
2022-08-30T04:50:29.243Z,58.93
2022-08-30T04:53:19.115Z,58.71
2022-08-30T04:56:12.991Z,58.98
2022-08-30T04:59:03.974Z,58.79
2022-08-30T05:01:50.786Z,59.11
2022-08-30T05:05:02.995Z,58.94
2022-08-30T05:07:49.685Z,59.19
2022-08-30T05:10:39.614Z,59.33
2022-08-30T05:13:35.190Z,58.99
2022-08-30T05:16:23.610Z,59.33
2022-08-30T05:19:10.438Z,59.31
2022-08-30T05:21:57.155Z,59.27
2022-08-30T05:24:45.619Z,59.33
2022-08-30T05:27:32.370Z,59.53
2022-08-30T05:30:19.159Z,59.42
2022-08-30T05:33:08.358Z,59.64
2022-08-30T05:35:55.080Z,59.69
2022-08-30T05:38:42.070Z,59.82
2022-08-30T05:41:31.675Z,59.82
2022-08-30T05:44:19.115Z,60.07
2022-08-30T05:47:06.997Z,59.49
2022-08-30T05:49:56.665Z,59.77
2022-08-30T05:53:03.952Z,60.02
2022-08-30T05:56:00.595Z,60.02
2022-08-30T05:58:55.322Z,59.75
2022-08-30T06:01:46.240Z,60.06
2022-08-30T06:04:36.109Z,60.23
2022-08-30T06:07:39.157Z,60.34
2022-08-30T06:10:26.588Z,61.08
2022-08-30T06:13:29.359Z,60.89
2022-08-30T06:16:26.889Z,60.86
2022-08-30T06:19:33.460Z,61.11
2022-08-30T06:22:35.131Z,61.00
2022-08-30T06:28:43.193Z,61.01
2022-08-30T06:32:02.684Z,60.74
2022-08-30T06:34:53.411Z,60.73
2022-08-30T06:37:43.197Z,61.17
2022-08-30T06:40:32.438Z,61.06
2022-08-30T06:43:22.616Z,61.21
2022-08-30T06:46:14.155Z,61.12
2022-08-30T06:49:11.860Z,61.27
2022-08-30T06:52:01.959Z,61.66
2022-08-30T06:54:50.419Z,62.02
2022-08-30T07:01:56.246Z,62.62
2022-08-30T07:04:55.265Z,62.72
2022-08-30T07:11:14.583Z,63.18
2022-08-30T07:17:56.582Z,62.70
2022-08-30T07:24:12.746Z,63.27
2022-08-30T07:28:18.766Z,63.23
2022-08-30T07:31:31.444Z,63.41
2022-08-30T07:34:43.188Z,62.80
2022-08-30T07:38:08.699Z,63.38
2022-08-30T07:44:59.493Z,63.19
2022-08-30T08:04:40.999Z,63.19
2022-08-30T08:23:12.464Z,61.69
2022-08-30T08:26:05.390Z,61.57
2022-08-30T08:29:05.386Z,61.47
2022-08-30T08:32:05.143Z,61.57
2022-08-30T08:34:53.297Z,61.16
2022-08-30T08:37:51.632Z,61.27
2022-08-30T08:55:27.997Z,60.86
2022-08-30T09:39:59.682Z,57.61
2022-08-30T09:51:12.854Z,56.39
2022-08-30T10:16:13.296Z,54.22
2022-08-30T10:19:07.403Z,54.26
2022-08-30T10:22:09.813Z,53.94
2022-08-30T10:25:09.859Z,54.44
2022-08-30T10:28:21.248Z,54.53
2022-08-30T10:31:16.397Z,54.14
2022-08-30T10:34:31.544Z,54.30
2022-08-30T10:37:42.916Z,54.12
2022-08-30T10:44:31.384Z,53.76
2022-08-30T10:55:58.750Z,52.50
2022-08-30T10:58:48.535Z,51.44
2022-08-30T11:01:46.964Z,51.08
2022-08-30T11:04:45.452Z,50.89
2022-08-30T11:07:39.204Z,51.22
2022-08-30T11:10:41.483Z,50.79
2022-08-30T11:13:36.900Z,50.55
2022-08-30T11:16:34.206Z,50.77
2022-08-30T11:22:42.314Z,50.51
2022-08-30T11:26:12.234Z,50.65
2022-08-30T11:29:14.017Z,49.65
2022-08-30T11:32:55.765Z,49.80
2022-08-30T11:35:50.955Z,49.96
2022-08-30T11:48:54.562Z,48.47
2022-08-30T11:51:57.996Z,48.35
2022-08-30T11:55:00.597Z,47.82
2022-08-30T11:57:53.882Z,47.25
2022-08-30T12:00:42.294Z,47.50
2022-08-30T12:12:31.612Z,47.32
2022-08-30T12:15:19.595Z,47.48
2022-08-30T12:18:48.620Z,47.30
2022-08-30T12:21:49.977Z,47.13
2022-08-30T12:25:03.296Z,47.07
2022-08-30T12:28:04.348Z,46.67
2022-08-30T12:30:52.175Z,46.21
2022-08-30T12:34:03.907Z,46.38
2022-08-30T12:37:36.319Z,46.01
2022-08-30T12:40:37.310Z,45.74
2022-08-30T12:43:28.382Z,44.92
2022-08-30T12:47:02.249Z,44.91
2022-08-30T12:50:41.812Z,43.96
2022-08-30T12:53:59.948Z,44.12
2022-08-30T12:57:19.003Z,43.90
2022-08-30T13:00:31.627Z,43.69
2022-08-30T13:03:30.032Z,43.54
2022-08-30T13:06:18.193Z,43.75
2022-08-30T13:09:09.966Z,42.66
2022-08-30T13:12:02.281Z,43.19
2022-08-30T13:14:55.808Z,42.72
2022-08-30T13:18:21.612Z,42.26
2022-08-30T13:21:43.157Z,41.63
2022-08-30T13:24:35.029Z,41.49
2022-08-30T13:27:22.070Z,41.24
2022-08-30T13:30:13.421Z,40.89
2022-08-30T13:33:04.489Z,40.56
2022-08-30T13:35:51.250Z,40.06
2022-08-30T13:38:37.972Z,39.00
2022-08-30T13:41:26.063Z,39.08
2022-08-30T13:44:17.058Z,39.62
2022-08-30T14:02:07.425Z,37.16
2022-08-30T14:04:46.699Z,37.39
2022-08-30T14:07:47.040Z,37.31
2022-08-30T14:10:47.587Z,37.03
2022-08-30T14:16:57.100Z,36.73
2022-08-30T14:19:59.251Z,36.97
2022-08-30T14:22:53.797Z,36.78
2022-08-30T14:25:43.395Z,36.54
2022-08-30T14:28:33.232Z,36.19
2022-08-30T14:31:24.695Z,35.93
2022-08-30T14:34:13.027Z,35.88
2022-08-30T14:37:39.193Z,36.23
2022-08-30T14:41:04.623Z,36.07
2022-08-30T14:47:12.688Z,36.30
2022-08-30T14:50:12.544Z,36.22
2022-08-30T14:53:09.332Z,35.64
2022-08-30T15:03:20.001Z,36.08
2022-08-30T15:13:26.991Z,35.63
2022-08-30T15:16:43.874Z,35.55
2022-08-30T15:31:17.643Z,36.26
2022-08-30T15:38:33.813Z,35.82
2022-08-30T15:46:08.032Z,35.40
2022-08-30T15:53:49.764Z,35.85
2022-08-30T16:15:05.270Z,35.97
2022-08-30T16:18:20.376Z,35.67
2022-08-30T17:57:35.799Z,39.68
